Wetterdaten: Juli 2010
Datum Temp Feuchte Luftdruck Regen Wind Richtung Sonnenschein UV Solar Windben
01.07.2010 22,5 C 66 % 1015,0 hPa 0,0 l/m 1,2 km/h SO 8,67 h 2,7 UV-I 339 W/m 4,8 km/h
02.07.2010 24,8 C 61 % 1014,7 hPa 0,0 l/m 1,6 km/h S 12,33 h 3,3 UV-I 423 W/m 4,8 km/h
03.07.2010 23,8 C 71 % 1015,1 hPa 0,6 l/m 1,7 km/h S 9,75 h 3,5 UV-I 435 W/m 6,0 km/h
04.07.2010 21,0 C 79 % 1018,0 hPa 0,0 l/m 2,0 km/h N-NW 4,08 h 1,9 UV-I 227 W/m 6,4 km/h
05.07.2010 19,1 C 75 % 1017,8 hPa 0,0 l/m 3,3 km/h NW 7,42 h 3,1 UV-I 338 W/m 9,2 km/h
06.07.2010 16,8 C 67 % 1021,8 hPa 0,2 l/m 4,6 km/h N-NW 5,08 h 2,0 UV-I 268 W/m 12,1 km/h
07.07.2010 19,1 C 62 % 1021,6 hPa 0,0 l/m 0,5 km/h S 12,50 h 4,0 UV-I 476 W/m 2,4 km/h
08.07.2010 24,0 C 56 % 1018,6 hPa 0,0 l/m 1,3 km/h S 12,17 h 3,5 UV-I 447 W/m 4,0 km/h
09.07.2010 26,3 C 53 % 1017,0 hPa 0,0 l/m 4,3 km/h S 10,75 h 3,3 UV-I 416 W/m 8,8 km/h
10.07.2010 28,0 C 58 % 1016,4 hPa 0,0 l/m 1,9 km/h NW 12,92 h 3,3 UV-I 443 W/m 3,6 km/h
11.07.2010 26,8 C 64 % 1014,6 hPa 0,0 l/m 0,6 km/h S 7,50 h 2,9 UV-I 340 W/m 2,8 km/h
12.07.2010 25,5 C 64 % 1010,5 hPa 0,2 l/m 2,3 km/h S 8,67 h 3,0 UV-I 344 W/m 5,6 km/h
13.07.2010 22,9 C 62 % 1010,1 hPa 0,0 l/m 1,2 km/h NW 8,58 h 3,3 UV-I 387 W/m 4,4 km/h
14.07.2010 22,9 C 70 % 1007,4 hPa 7,8 l/m 8,6 km/h SO 8,58 h 3,2 UV-I 389 W/m 20,1 km/h
15.07.2010 20,0 C 59 % 1012,9 hPa 0,2 l/m 6,6 km/h S 8,58 h 3,2 UV-I 396 W/m 13,3 km/h
16.07.2010 23,6 C 57 % 1014,4 hPa 0,0 l/m 4,7 km/h S 12,58 h 3,9 UV-I 458 W/m 8,5 km/h
17.07.2010 19,2 C 66 % 1018,6 hPa 0,0 l/m 4,4 km/h NW 3,42 h 2,2 UV-I 220 W/m 12,1 km/h
18.07.2010 17,8 C 61 % 1025,6 hPa 0,0 l/m 0,4 km/h N-NW 12,25 h 3,4 UV-I 474 W/m 2,0 km/h
19.07.2010 20,7 C 55 % 1021,8 hPa 0,0 l/m 0,5 km/h SO 12,92 h 3,7 UV-I 464 W/m 2,0 km/h
20.07.2010 22,8 C 49 % 1013,5 hPa 0,0 l/m 2,4 km/h SO 12,83 h 3,8 UV-I 466 W/m 8,8 km/h
21.07.2010 25,3 C 52 % 1007,2 hPa 0,2 l/m 4,6 km/h S 8,50 h 3,2 UV-I 372 W/m 13,3 km/h
22.07.2010 18,4 C 87 % 1013,0 hPa 11,6 l/m 0,9 km/h W-NW 1,58 h 1,6 UV-I 140 W/m 4,0 km/h
23.07.2010 18,9 C 83 % 1015,4 hPa 9,6 l/m 2,1 km/h N-NO 2,42 h 2,3 UV-I 249 W/m 8,9 km/h
24.07.2010 15,5 C 64 % 1017,9 hPa 0,0 l/m 8,8 km/h N-NW 3,08 h 2,2 UV-I 245 W/m 17,3 km/h
25.07.2010 15,0 C 76 % 1015,1 hPa 0,0 l/m 4,9 km/h N-NW 9,75 h 3,0 UV-I 410 W/m 13,3 km/h
26.07.2010 16,0 C 85 % 1011,7 hPa 2,2 l/m 1,8 km/h S 2,00 h 1,8 UV-I 202 W/m 6,8 km/h
27.07.2010 17,9 C 75 % 1016,2 hPa 0,2 l/m 2,6 km/h N-NW 6,67 h 2,5 UV-I 323 W/m 7,6 km/h
28.07.2010 17,3 C 78 % 1012,7 hPa 4,4 l/m 3,8 km/h S 2,67 h 2,2 UV-I 186 W/m 9,2 km/h
29.07.2010 14,7 C 88 % 1010,0 hPa 6,6 l/m 4,2 km/h NW 2,50 h 2,2 UV-I 237 W/m 11,6 km/h
30.07.2010 16,3 C 73 % 1014,3 hPa 0,0 l/m 3,8 km/h W-NW 6,67 h 3,0 UV-I 352 W/m 10,8 km/h
31.07.2010 18,8 C 70 % 1014,2 hPa 0,2 l/m 3,5 km/h S 6,75 h 2,7 UV-I 313 W/m 8,4 km/h
Min-Datum 25.07.10 09.07.10 14.07.10 13 Tage 01.07.10 - - - - 01.07.10
Min-Zeit 06:20 13:00 20:00 - 00:45 - - - - 02:05
Minimum 4,8 C 32 % 1002,1 hPa - 0,0 km/h - - - - 0,0 km/h
Max-Datum 10.07.10 05.07.10 18.07.10 22.07.10 15.07.10 - 10.07.10 05.07.10 05.07.10 14.07.10
Max-Zeit 16:05 05:05 10:40 16:20 12:25 - 20:05 13:15 13:15 21:00
Maximum 35,4 C 98 % 1027,4 hPa 11,6 l/m 23,9 km/h
S
- 12,83 h 8,5 UV-I 1176 W/m 61,2 km/h
S
Durchschnitt 20,7 C 67 % 1015,3 hPa #44,0 l/m 3,1 km/h S #244:10 h 2,9 UV-I 348 W/m 8,2 km/h

Durchschnitt Minimum Temp.13,6 C
Durchschnitt Maximum Temp.26,8 C